Time;durP1;ratioP1;P1;durP2;ratioP2;P2;SDS_P1;SDS_P2;PMS_P1;PMS_P2;Temp;Humidity;BMP_temperature;BMP_pressure;BME280_temperature;BME280_humidity;BME280_pressure;Samples;Min_cycle;Max_cycle;Signal;HPM_P1;HPM_P2
2023/04/07 00:03:05;;;;;;;16.33;11.53;;;4.20;99.50;;;2.56;74.75;99893.78;10485159;27;96605;-85
2023/04/07 00:08:09;;;;;;;16.40;11.03;;;4.20;99.10;;;2.52;74.62;99881.88;10493339;27;97206;-85
2023/04/07 00:13:12;;;;;;;15.20;10.90;;;4.10;99.00;;;2.51;74.54;99880.19;10495597;27;96474;-85
2023/04/07 00:18:15;;;;;;;15.73;10.43;;;4.10;98.90;;;2.53;74.54;99889.63;10497280;27;96743;-85
2023/04/07 00:23:18;;;;;;;18.53;12.43;;;4.10;98.90;;;2.49;74.66;99887.38;10530842;27;96822;-85
2023/04/07 00:28:21;;;;;;;18.67;11.83;;;4.10;98.80;;;2.49;74.74;99887.38;10494186;27;97434;-85
2023/04/07 00:33:24;;;;;;;19.27;11.37;;;4.10;98.80;;;2.49;75.14;99876.88;10487263;27;98303;-85
2023/04/07 00:38:28;;;;;;;19.20;12.73;;;4.10;98.70;;;2.46;75.46;99875.34;10486393;27;99001;-86
2023/04/07 00:43:31;;;;;;;20.53;13.00;;;4.10;98.70;;;2.46;74.98;99864.00;10513070;27;96521;-85
2023/04/07 00:48:35;;;;;;;16.70;11.03;;;4.10;98.70;;;2.47;75.25;99865.69;10502589;27;98868;-85
2023/04/07 00:53:38;;;;;;;16.23;10.93;;;4.10;98.70;;;2.49;74.68;99864.59;10494905;27;97521;-85
2023/04/07 00:58:43;;;;;;;18.87;11.40;;;4.10;98.70;;;2.50;73.61;99863.63;10481279;27;96503;-85
2023/04/07 01:03:57;;;;;;;16.27;10.37;;;4.10;98.30;;;2.56;73.94;99862.31;10463979;27;96563;-86
2023/04/07 01:09:11;;;;;;;16.93;10.83;;;4.20;98.30;;;2.60;73.36;99859.31;10478731;27;96708;-84
2023/04/07 01:14:16;;;;;;;18.30;11.40;;;4.20;98.10;;;2.61;73.33;99858.34;10473090;27;97663;-85
2023/04/07 01:19:52;;;;;;;18.50;11.60;;;4.20;98.00;;;2.61;72.76;99849.66;10457427;27;97140;-85
2023/04/07 01:25:59;;;;;;;16.00;10.03;;;4.20;97.80;;;2.61;72.60;99840.00;10498604;27;96523;-85
2023/04/07 01:31:04;;;;;;;17.43;11.13;;;4.20;97.80;;;2.62;72.65;99836.41;10466859;27;97316;-85
2023/04/07 01:36:09;;;;;;;18.60;11.97;;;4.20;97.70;;;2.62;72.50;99838.19;10481711;27;96476;-85
2023/04/07 01:41:14;;;;;;;18.10;12.50;;;4.20;97.60;;;2.63;72.57;99839.84;10463238;27;98990;-85
2023/04/07 01:46:17;;;;;;;21.90;11.97;;;4.20;97.50;;;2.62;72.74;99833.78;10495978;27;96756;-85
2023/04/07 01:51:22;;;;;;;17.60;11.97;;;4.20;97.70;;;2.62;72.50;99835.56;10461591;27;96587;-85
2023/04/07 01:56:25;;;;;;;16.70;11.97;;;4.20;97.60;;;2.61;73.37;99831.28;10486556;27;96679;-85
2023/04/07 02:01:28;;;;;;;19.20;12.13;;;4.20;97.70;;;2.58;73.06;99824.53;10515791;27;96937;-85
2023/04/07 02:06:38;;;;;;;15.83;10.73;;;4.20;97.70;;;2.55;73.62;99835.25;10460624;27;98638;-85
2023/04/07 02:11:44;;;;;;;17.67;11.33;;;4.20;97.70;;;2.53;73.98;99825.84;10492405;27;96398;-86
2023/04/07 02:16:47;;;;;;;16.10;10.60;;;4.10;97.80;;;2.50;74.51;99833.97;10504291;27;96784;-86
2023/04/07 02:21:51;;;;;;;16.00;10.47;;;4.10;98.00;;;2.48;74.72;99828.84;10519755;27;98737;-86
2023/04/07 02:26:55;;;;;;;16.73;10.70;;;4.10;98.00;;;2.48;75.07;99825.38;10519043;27;96570;-87
2023/04/07 02:31:57;;;;;;;19.13;13.03;;;4.10;98.10;;;2.41;75.51;99822.44;10509649;27;97462;-87
2023/04/07 02:37:01;;;;;;;17.10;11.97;;;4.10;98.20;;;2.39;75.63;99833.03;10477492;27;96491;-86
2023/04/07 02:42:04;;;;;;;18.77;12.73;;;4.00;98.40;;;2.34;75.74;99826.50;10496612;27;98566;-86
2023/04/07 02:47:07;;;;;;;19.60;12.60;;;4.00;98.70;;;2.32;76.53;99831.88;10498571;27;96583;-86
2023/04/07 02:52:11;;;;;;;23.03;13.47;;;4.00;99.00;;;2.34;76.47;99840.47;10469607;27;96529;-85
2023/04/07 02:57:14;;;;;;;19.63;12.80;;;4.00;99.20;;;2.30;77.18;99835.59;10472494;27;96534;-86
2023/04/07 03:02:18;;;;;;;21.93;13.97;;;3.90;99.40;;;2.30;77.25;99832.97;10478179;27;96601;-86
2023/04/07 03:07:21;;;;;;;20.20;13.10;;;3.90;99.40;;;2.27;77.55;99825.31;10474107;27;96615;-86
2023/04/07 03:12:24;;;;;;;20.67;14.10;;;3.90;99.90;;;2.23;78.33;99824.75;10472370;27;97354;-87
2023/04/07 03:17:27;;;;;;;21.40;13.33;;;3.90;99.90;;;2.22;78.24;99817.84;10500562;27;96591;-86
2023/04/07 03:22:30;;;;;;;20.70;13.63;;;3.80;99.90;;;2.25;78.48;99833.31;10484691;27;96584;-85
2023/04/07 03:27:33;;;;;;;26.87;14.27;;;3.80;99.90;;;2.26;78.60;99834.97;10496001;27;98502;-84
2023/04/07 03:32:36;;;;;;;20.60;12.70;;;3.90;99.90;;;2.28;78.31;99829.59;10499734;27;98570;-84
2023/04/07 03:37:39;;;;;;;21.23;14.13;;;3.90;99.90;;;2.28;78.30;99827.84;10486852;27;96584;-83
2023/04/07 03:42:42;;;;;;;21.37;13.40;;;3.90;99.90;;;2.29;78.73;99831.31;10521763;27;96591;-84
2023/04/07 03:47:46;;;;;;;18.73;13.43;;;3.90;99.90;;;2.30;78.66;99833.78;10514521;27;96761;-84
2023/04/07 03:52:49;;;;;;;23.30;14.30;;;3.90;99.90;;;2.31;78.96;99827.59;10522932;27;97606;-84
2023/04/07 03:57:52;;;;;;;19.13;12.83;;;3.90;99.90;;;2.35;78.99;99836.03;10507615;27;96483;-84
2023/04/07 04:02:55;;;;;;;20.37;13.60;;;4.00;99.90;;;2.38;78.60;99844.47;10483590;27;96532;-84
2023/04/07 04:07:58;;;;;;;19.17;12.50;;;4.00;99.90;;;2.39;78.40;99840.91;10484189;27;96407;-86
2023/04/07 04:13:02;;;;;;;19.03;12.00;;;4.00;99.90;;;2.46;78.45;99846.50;10485621;27;96691;-84
2023/04/07 04:18:05;;;;;;;18.37;11.43;;;4.10;99.90;;;2.53;78.35;99858.16;10503696;27;97193;-85
2023/04/07 04:23:08;;;;;;;17.30;12.07;;;4.10;99.90;;;2.59;78.35;99859.44;10501122;27;97574;-86
2023/04/07 04:28:12;;;;;;;17.10;11.67;;;4.20;99.90;;;2.67;77.97;99870.13;10496700;27;97044;-85
2023/04/07 04:33:14;;;;;;;17.10;11.23;;;4.30;99.90;;;2.73;77.45;99863.56;10491134;27;96621;-86
2023/04/07 04:38:18;;;;;;;17.20;12.27;;;4.40;99.90;;;2.79;77.16;99874.38;10521810;27;97108;-86
2023/04/07 04:43:21;;;;;;;14.83;10.17;;;4.40;99.90;;;2.83;77.07;99870.56;10503731;27;97389;-85
2023/04/07 04:48:24;;;;;;;16.57;10.87;;;4.50;99.90;;;2.90;77.08;99876.97;10503344;27;97640;-85
2023/04/07 04:53:27;;;;;;;21.70;14.60;;;4.60;99.90;;;2.89;76.95;99864.81;10466258;27;98141;-85
2023/04/07 04:58:31;;;;;;;23.63;15.90;;;4.60;99.70;;;2.91;76.93;99876.00;10484047;27;98580;-85
2023/04/07 05:03:34;;;;;;;17.70;13.27;;;4.60;99.70;;;2.99;76.69;99882.41;10500632;27;96644;-85
2023/04/07 05:08:37;;;;;;;17.70;11.67;;;4.60;99.80;;;3.05;76.46;99884.50;10486889;27;96527;-85
2023/04/07 05:13:40;;;;;;;18.67;12.23;;;4.70;99.80;;;3.15;76.53;99886.25;10473757;27;96496;-86
2023/04/07 05:18:43;;;;;;;21.93;12.03;;;4.80;99.70;;;3.30;76.38;99884.16;10492728;27;97657;-85
2023/04/07 05:23:46;;;;;;;22.73;13.40;;;4.90;99.60;;;3.48;75.85;99902.78;10475999;27;96646;-85
2023/04/07 05:28:49;;;;;;;19.03;11.50;;;5.10;99.50;;;3.62;75.16;99902.44;10497141;27;96636;-85
2023/04/07 05:33:52;;;;;;;18.90;12.27;;;5.20;99.30;;;3.81;74.42;99896.44;10483148;27;96824;-85
2023/04/07 05:38:55;;;;;;;13.43;9.30;;;5.30;99.10;;;3.93;73.89;99895.38;10495333;27;96618;-86
2023/04/07 05:43:58;;;;;;;14.83;10.53;;;5.50;98.80;;;3.98;73.06;99900.25;10499274;27;98273;-86
2023/04/07 05:49:01;;;;;;;16.03;10.40;;;5.50;98.40;;;4.01;72.34;99906.03;10480411;27;97355;-83
2023/04/07 05:54:21;;;;;;;16.70;10.93;;;5.60;98.10;;;4.03;71.94;99906.75;10482065;27;96509;-84
2023/04/07 05:59:25;;;;;;;13.73;9.57;;;5.60;97.90;;;4.07;71.45;99906.47;10468807;27;96739;-84
2023/04/07 06:04:28;;;;;;;17.53;11.20;;;5.70;97.80;;;4.19;71.74;99900.16;10499190;27;96533;-86
2023/04/07 06:09:31;;;;;;;16.03;10.10;;;5.80;97.70;;;4.32;71.63;99898.13;10490322;27;96768;-86
2023/04/07 06:14:34;;;;;;;23.63;14.83;;;5.90;97.60;;;4.35;69.69;99897.00;10482458;27;96594;-81
2023/04/07 06:19:37;;;;;;;20.03;12.73;;;6.00;97.00;;;4.45;69.34;99897.88;10499639;27;96618;-81
2023/04/07 06:24:40;;;;;;;14.67;9.77;;;6.10;96.80;;;4.54;69.53;99908.41;10503727;27;97346;-81
2023/04/07 06:29:43;;;;;;;18.10;11.63;;;6.10;96.60;;;4.64;68.82;99908.44;10491001;27;97325;-82
2023/04/07 06:34:46;;;;;;;29.53;16.20;;;6.30;96.40;;;4.71;68.24;99916.59;10464379;27;96513;-81
2023/04/07 06:39:49;;;;;;;14.47;10.27;;;6.30;96.00;;;4.78;67.90;99922.97;10427333;27;97170;-83
2023/04/07 06:44:52;;;;;;;18.07;11.97;;;6.40;95.90;;;4.67;67.61;99915.19;10449145;27;96760;-82
2023/04/07 06:49:55;;;;;;;26.87;15.87;;;6.30;95.50;;;4.61;68.51;99924.47;10437331;27;96710;-82
2023/04/07 06:54:58;;;;;;;20.53;12.50;;;6.30;95.60;;;4.41;70.22;99933.31;10477905;27;96700;-82
2023/04/07 07:00:01;;;;;;;25.20;15.30;;;6.10;95.90;;;4.04;72.51;99941.78;10475394;27;96562;-82
2023/04/07 07:05:10;;;;;;;19.83;12.47;;;5.80;96.50;;;3.89;74.70;99954.41;10439814;27;97324;-83
2023/04/07 07:10:13;;;;;;;25.90;17.33;;;5.60;97.20;;;3.69;76.61;99957.91;10500858;27;98019;-83
2023/04/07 07:15:16;;;;;;;22.27;14.37;;;5.40;98.00;;;3.58;77.99;99963.25;10462478;27;96584;-84
2023/04/07 07:20:22;;;;;;;21.30;14.27;;;5.30;98.70;;;3.63;79.49;99974.22;10465178;27;96597;-84
2023/04/07 07:25:28;;;;;;;24.27;15.77;;;5.30;99.60;;;3.73;79.69;99980.38;10448347;27;96531;-83
2023/04/07 07:30:31;;;;;;;25.00;15.60;;;5.30;99.90;;;3.72;80.06;99989.22;10448104;27;97979;-90
2023/04/07 07:35:36;;;;;;;28.77;17.80;;;5.30;99.90;;;3.66;80.49;99989.72;10483568;27;96948;-88
2023/04/07 07:40:40;;;;;;;26.73;17.70;;;5.30;99.90;;;3.84;81.42;99988.19;10481609;27;98929;-88
2023/04/07 07:45:43;;;;;;;24.53;16.30;;;5.40;99.90;;;3.89;81.29;99996.47;10507612;27;98655;-83
2023/04/07 07:50:47;;;;;;;21.67;14.87;;;5.60;99.90;;;3.98;81.34;99994.88;10499141;27;97580;-87
2023/04/07 07:55:50;;;;;;;25.77;16.23;;;5.60;99.90;;;3.97;80.64;100009.84;10508471;27;96799;-87
2023/04/07 08:00:53;;;;;;;22.67;15.37;;;5.60;99.90;;;4.02;80.89;100012.06;10506639;27;97858;-83
2023/04/07 08:05:56;;;;;;;23.03;16.03;;;5.60;99.90;;;4.16;81.46;100009.09;10509135;27;97298;-83
2023/04/07 08:11:00;;;;;;;21.27;14.03;;;5.70;99.90;;;4.28;80.66;100009.84;10475910;27;98532;-83
2023/04/07 08:16:03;;;;;;;27.00;18.80;;;5.80;99.90;;;4.34;79.96;100011.94;10513968;27;96902;-83
2023/04/07 08:21:06;;;;;;;22.27;14.57;;;5.80;99.90;;;4.40;79.04;100016.66;10506407;27;97320;-85
2023/04/07 08:26:09;;;;;;;27.37;18.37;;;5.90;99.90;;;4.52;78.91;100026.13;10487780;27;98423;-85
2023/04/07 08:31:12;;;;;;;60.07;33.03;;;6.00;99.90;;;4.59;79.01;100020.34;10473428;27;96829;-84
2023/04/07 08:36:15;;;;;;;59.87;41.17;;;6.10;99.90;;;4.61;79.21;100021.84;10437277;27;96609;-83
2023/04/07 08:41:46;;;;;;;36.70;22.93;;;6.20;99.90;;;4.84;79.50;100019.84;10444493;27;96765;-83
2023/04/07 08:46:54;;;;;;;26.50;19.27;;;6.40;99.90;;;4.90;78.74;100019.28;10453008;27;98067;-83
2023/04/07 08:52:00;;;;;;;32.20;20.13;;;6.50;99.90;;;5.01;79.33;100027.06;10425144;27;98319;-83
2023/04/07 08:57:07;;;;;;;23.47;15.57;;;6.60;99.90;;;5.29;79.63;100020.19;10444762;27;97857;-82
2023/04/07 09:02:10;;;;;;;25.70;16.57;;;6.90;99.90;;;5.46;78.51;100023.06;10427536;27;98724;-82
2023/04/07 09:07:14;;;;;;;22.53;15.87;;;7.10;99.90;;;5.52;77.86;100018.09;10452100;27;97437;-83
2023/04/07 09:12:17;;;;;;;21.23;14.87;;;7.20;99.90;;;5.72;77.40;100018.09;10447149;27;96792;-82
2023/04/07 09:17:21;;;;;;;20.07;13.33;;;7.30;99.90;;;5.87;77.11;100016.66;10455608;27;97471;-81
2023/04/07 09:22:53;;;;;;;23.73;16.43;;;7.40;99.90;;;5.92;75.92;100017.09;10439271;27;98487;-81
2023/04/07 09:28:03;;;;;;;23.07;15.17;;;7.50;99.90;;;6.02;75.53;100017.91;10434747;27;96772;-82
2023/04/07 09:33:06;;;;;;;20.17;12.83;;;7.60;99.90;;;6.26;75.51;100019.22;10466875;27;96806;-82
2023/04/07 09:38:10;;;;;;;21.80;14.60;;;7.70;99.90;;;6.34;74.97;100017.50;10461286;27;96592;-81
2023/04/07 09:43:18;;;;;;;22.87;15.83;;;7.80;99.90;;;6.43;73.33;100011.38;10454082;27;97568;-82
2023/04/07 09:48:21;;;;;;;19.10;14.47;;;7.90;99.90;;;6.53;73.07;100021.88;10459324;27;98740;-82
2023/04/07 09:53:48;;;;;;;23.77;15.53;;;8.00;99.60;;;6.49;72.20;100022.34;10455052;27;98629;-82
2023/04/07 09:58:52;;;;;;;22.53;15.13;;;8.10;99.50;;;6.49;71.76;100025.81;10456305;27;97586;-82
2023/04/07 10:03:55;;;;;;;25.20;16.83;;;8.00;99.20;;;6.27;72.32;100028.81;10457774;27;97486;-81
2023/04/07 10:09:00;;;;;;;24.40;16.93;;;7.90;99.10;;;6.05;72.50;100022.88;10449006;27;97524;-81
2023/04/07 10:14:04;;;;;;;25.43;17.63;;;7.70;99.00;;;6.04;72.10;100028.31;10469313;27;96606;-81
2023/04/07 10:19:08;;;;;;;21.07;14.17;;;7.50;98.80;;;6.03;72.73;100030.13;10469471;27;96677;-81
2023/04/07 10:24:50;;;;;;;23.93;15.50;;;7.50;99.00;;;6.06;73.06;100029.84;10466873;27;98953;-81
2023/04/07 10:29:54;;;;;;;28.67;20.13;;;7.50;99.20;;;6.05;73.36;100036.06;10485199;27;98010;-81
2023/04/07 10:34:59;;;;;;;23.70;17.63;;;7.50;99.20;;;6.02;73.08;100025.81;10479080;27;98532;-82
2023/04/07 10:40:18;;;;;;;24.70;15.90;;;7.60;99.10;;;6.14;73.52;100026.47;10516234;27;98253;-82
2023/04/07 10:45:47;;;;;;;20.37;14.17;;;7.60;99.10;;;6.30;73.35;100031.16;10499139;27;96808;-81
2023/04/07 10:51:06;;;;;;;22.80;15.17;;;7.70;99.10;;;6.33;72.25;100033.50;10475858;27;98956;-82
2023/04/07 10:56:09;;;;;;;23.43;16.13;;;7.80;99.00;;;6.39;72.46;100028.47;10494475;27;97356;-82
2023/04/07 11:01:12;;;;;;;22.77;15.77;;;7.90;98.90;;;6.46;71.99;100026.06;10466114;27;98407;-80
2023/04/07 11:06:15;;;;;;;36.37;29.53;;;7.90;98.70;;;6.42;71.88;100036.13;10508101;27;96503;-81
2023/04/07 11:11:40;;;;;;;27.30;18.10;;;8.00;98.60;;;6.44;70.85;100031.50;10493312;27;96561;-82
2023/04/07 11:16:44;;;;;;;23.93;16.43;;;8.00;98.00;;;6.42;71.25;100036.13;10497277;27;98021;-83
2023/04/07 11:21:48;;;;;;;21.97;14.77;;;7.90;98.20;;;6.40;71.32;100043.31;10499709;27;97379;-82
2023/04/07 11:26:51;;;;;;;20.33;14.93;;;7.90;98.30;;;6.46;71.42;100034.00;10484059;27;96593;-82
2023/04/07 11:31:57;;;;;;;20.10;14.23;;;7.90;98.20;;;6.46;70.97;100039.28;10484561;27;97454;-83
2023/04/07 11:37:23;;;;;;;18.33;12.47;;;8.00;98.10;;;6.51;70.71;100036.22;10500854;27;96626;-82
2023/04/07 11:42:35;;;;;;;25.20;16.10;;;8.00;97.80;;;6.47;70.73;100029.53;10507805;27;97367;-81
2023/04/07 11:47:39;;;;;;;18.60;12.23;;;8.00;97.90;;;6.51;70.64;100029.13;10461942;27;98656;-82
2023/04/07 11:52:47;;;;;;;17.00;11.30;;;8.00;97.80;;;6.56;70.89;100041.88;10487733;27;96738;-83
2023/04/07 11:57:51;;;;;;;19.40;13.40;;;8.10;97.90;;;6.57;70.94;100036.44;10509390;27;97307;-83
2023/04/07 12:02:55;;;;;;;19.93;13.20;;;8.10;97.90;;;6.64;70.52;100034.88;10493314;27;98412;-81
2023/04/07 12:07:59;;;;;;;21.63;13.73;;;8.20;97.70;;;6.70;70.29;100031.66;10481618;27;97556;-82
2023/04/07 12:13:02;;;;;;;20.90;14.73;;;8.20;97.60;;;6.72;69.92;100034.19;10488062;27;97219;-82
2023/04/07 12:18:05;;;;;;;19.97;14.10;;;8.20;97.50;;;6.66;69.12;100027.66;10474791;27;97477;-82
2023/04/07 12:23:08;;;;;;;25.67;17.13;;;8.20;97.20;;;6.51;69.21;100026.47;10490383;27;97849;-82
2023/04/07 12:28:11;;;;;;;25.97;17.10;;;8.20;97.10;;;6.56;70.23;100031.31;10495793;27;96558;-81
2023/04/07 12:33:14;;;;;;;24.33;16.40;;;8.10;97.20;;;6.51;69.73;100029.13;10511013;27;97925;-81
2023/04/07 12:38:17;;;;;;;25.63;15.97;;;8.10;97.10;;;6.62;69.68;100023.66;10492233;27;96620;-81
2023/04/07 12:43:20;;;;;;;22.70;14.30;;;8.20;97.10;;;6.76;70.03;100026.78;10489490;27;96665;-80
2023/04/07 12:48:26;;;;;;;21.57;14.63;;;8.30;97.20;;;6.85;69.68;100026.72;10469576;27;96594;-81
2023/04/07 12:53:29;;;;;;;29.57;18.93;;;8.30;97.10;;;6.88;69.23;100031.69;10502877;27;98610;-80
2023/04/07 12:58:32;;;;;;;25.97;16.50;;;8.40;97.00;;;6.85;69.03;100039.09;10484169;27;98286;-80
2023/04/07 13:03:35;;;;;;;31.90;19.63;;;8.40;96.80;;;6.77;69.42;100036.34;10492589;27;96689;-81
2023/04/07 13:08:39;;;;;;;28.93;18.67;;;8.30;96.80;;;6.71;69.48;100038.59;10495305;27;96863;-80
2023/04/07 13:13:43;;;;;;;30.63;19.47;;;8.30;96.80;;;6.63;69.52;100035.88;10497383;27;97873;-81
2023/04/07 13:18:46;;;;;;;31.53;19.30;;;8.20;96.80;;;6.61;69.72;100040.47;10481211;27;98568;-81
2023/04/07 13:23:50;;;;;;;26.67;17.80;;;8.10;96.80;;;6.61;69.84;100039.66;10509918;27;96619;-83
2023/04/07 13:28:53;;;;;;;24.03;16.17;;;8.10;96.90;;;6.57;69.77;100033.81;10482041;27;97005;-82
2023/04/07 13:33:56;;;;;;;27.27;19.50;;;8.10;96.80;;;6.56;69.95;100042.72;10451402;27;96755;-83
2023/04/07 13:38:59;;;;;;;33.87;20.17;;;8.10;96.80;;;6.63;69.92;100035.88;10461924;27;98281;-82
2023/04/07 13:44:02;;;;;;;29.80;19.30;;;8.20;96.90;;;6.65;69.65;100036.53;10464781;27;96717;-80
2023/04/07 13:49:06;;;;;;;33.03;20.90;;;8.20;96.70;;;6.63;69.51;100041.16;10454508;27;96699;-82
2023/04/07 13:54:09;;;;;;;29.10;18.60;;;8.20;96.70;;;6.57;69.28;100046.19;10442594;27;97182;-81
2023/04/07 13:59:12;;;;;;;26.33;18.33;;;8.10;96.60;;;6.47;69.54;100048.84;10430168;27;98433;-80
2023/04/07 14:04:15;;;;;;;28.53;19.07;;;8.10;96.60;;;6.40;69.71;100043.31;10470423;27;97129;-81
2023/04/07 14:09:18;;;;;;;34.03;20.80;;;8.00;96.70;;;6.48;70.15;100039.13;10473577;27;97002;-81
2023/04/07 14:14:22;;;;;;;30.47;19.57;;;8.00;96.80;;;6.55;70.30;100045.50;10437882;27;98520;-82
2023/04/07 14:19:25;;;;;;;23.33;15.73;;;8.10;96.80;;;6.54;69.92;100044.69;10466515;27;97473;-83
2023/04/07 14:24:28;;;;;;;27.13;16.20;;;8.10;96.80;;;6.56;69.57;100050.63;10463760;27;96625;-83
2023/04/07 14:29:31;;;;;;;26.53;16.50;;;8.10;96.70;;;6.58;69.35;100046.03;10438830;27;96751;-82
2023/04/07 14:34:34;;;;;;;24.93;15.23;;;8.10;96.70;;;6.62;69.71;100057.97;10443031;27;96681;-82
2023/04/07 14:39:38;;;;;;;27.30;16.93;;;8.20;96.60;;;6.59;69.22;100057.41;10456735;27;98070;-82
2023/04/07 14:44:41;;;;;;;26.03;17.27;;;8.20;96.50;;;6.55;69.59;100048.97;10456358;27;96888;-83
2023/04/07 14:49:44;;;;;;;43.57;28.37;;;8.10;96.50;;;6.53;69.44;100053.56;10429249;27;97886;-84
2023/04/07 14:54:47;;;;;;;31.87;20.97;;;8.10;96.50;;;6.54;69.36;100054.41;10473031;27;97138;-83
2023/04/07 14:59:50;;;;;;;25.30;17.63;;;8.10;96.50;;;6.50;69.42;100045.94;10450902;27;96632;-82
2023/04/07 15:04:53;;;;;;;23.37;14.53;;;8.10;96.50;;;6.51;69.58;100049.41;10434058;27;96743;-82
2023/04/07 15:09:58;;;;;;;30.03;19.77;;;8.10;96.40;;;6.50;69.80;100060.94;10432333;27;96528;-82
2023/04/07 15:15:02;;;;;;;19.23;14.07;;;8.10;96.50;;;6.51;69.87;100059.97;10446683;27;96628;-83
2023/04/07 15:20:06;;;;;;;31.33;20.10;;;8.10;96.60;;;6.43;69.50;100060.69;10449505;27;97417;-83
2023/04/07 15:25:09;;;;;;;26.27;16.27;;;8.10;96.50;;;6.44;69.70;100050.00;10459034;27;97186;-83
2023/04/07 15:30:12;;;;;;;25.23;17.63;;;8.00;96.50;;;6.41;69.77;100054.72;10449804;27;96578;-83
2023/04/07 15:35:16;;;;;;;22.47;15.37;;;8.00;96.50;;;6.36;69.86;100063.09;10497098;27;97805;-83
2023/04/07 15:40:19;;;;;;;21.87;14.63;;;8.00;96.50;;;6.33;70.17;100062.53;10503593;27;97805;-83
2023/04/07 15:45:22;;;;;;;25.30;17.47;;;7.90;96.50;;;6.30;70.22;100066.31;10515570;27;96770;-83
2023/04/07 15:50:28;;;;;;;22.53;15.47;;;7.90;96.60;;;6.26;70.30;100066.72;10492539;27;98786;-83
2023/04/07 15:55:33;;;;;;;19.57;12.90;;;7.90;96.60;;;6.24;70.30;100063.38;10488917;27;98231;-83
2023/04/07 16:00:38;;;;;;;21.63;13.80;;;7.90;96.60;;;6.21;70.54;100064.50;10487567;27;96722;-83
2023/04/07 16:05:41;;;;;;;24.40;16.60;;;7.80;96.70;;;6.16;70.98;100070.19;10488563;27;98219;-83
2023/04/07 16:10:44;;;;;;;28.73;17.80;;;7.80;96.70;;;6.13;71.40;100074.94;10474656;27;97731;-83
2023/04/07 16:15:47;;;;;;;29.67;18.93;;;7.80;96.90;;;6.10;71.58;100073.41;10481472;27;96792;-83
2023/04/07 16:20:50;;;;;;;60.73;28.70;;;7.70;96.90;;;6.06;71.68;100074.69;10475043;27;96550;-83
2023/04/07 16:25:53;;;;;;;72.50;34.87;;;7.70;96.90;;;6.02;71.83;100077.75;10476207;27;96534;-83
2023/04/07 16:30:56;;;;;;;33.40;20.20;;;7.60;97.00;;;5.98;72.34;100089.53;10516289;27;96553;-83
2023/04/07 16:35:59;;;;;;;45.70;26.90;;;7.60;97.10;;;5.96;72.63;100094.97;10495432;27;97239;-83
2023/04/07 16:41:02;;;;;;;48.97;26.03;;;7.60;97.30;;;5.91;73.16;100094.56;10509169;27;96763;-83
2023/04/07 16:46:08;;;;;;;40.80;23.80;;;7.50;97.40;;;5.85;73.77;100095.09;10504331;27;96628;-83
2023/04/07 16:51:18;;;;;;;36.50;21.90;;;7.50;97.50;;;5.74;74.94;100105.78;10486501;27;96585;-83
2023/04/07 16:56:23;;;;;;;36.93;23.57;;;7.40;97.90;;;5.60;75.75;100104.38;10478273;27;97058;-83
2023/04/07 17:01:28;;;;;;;40.23;23.17;;;7.30;98.10;;;5.48;76.80;100114.22;10495352;27;96578;-82
2023/04/07 17:06:31;;;;;;;36.10;22.40;;;7.10;98.40;;;5.33;78.44;100115.56;10488241;27;96813;-83
2023/04/07 17:11:35;;;;;;;41.80;23.97;;;7.00;98.80;;;5.21;79.35;100121.94;10486648;27;97232;-82
2023/04/07 17:16:38;;;;;;;42.43;25.13;;;6.90;99.30;;;5.11;80.14;100121.94;10491011;27;96720;-83
2023/04/07 17:21:42;;;;;;;42.80;24.73;;;6.80;99.70;;;5.01;80.70;100124.53;10504355;27;98775;-83
2023/04/07 17:26:45;;;;;;;34.33;20.67;;;6.70;99.90;;;4.96;81.66;100132.00;10462652;27;96559;-83
2023/04/07 17:31:48;;;;;;;43.27;25.70;;;6.60;99.90;;;4.95;82.01;100132.97;10476176;27;98663;-83
2023/04/07 17:36:51;;;;;;;51.53;31.83;;;6.60;99.90;;;4.90;83.24;100145.69;10442101;27;98341;-84
2023/04/07 17:41:54;;;;;;;57.13;32.50;;;6.60;99.90;;;4.79;84.04;100149.25;10496898;27;97023;-84
2023/04/07 17:46:57;;;;;;;51.23;31.23;;;6.50;99.90;;;4.75;84.80;100161.03;10443142;27;96528;-84
2023/04/07 17:52:00;;;;;;;49.27;27.90;;;6.50;99.90;;;4.71;85.72;100172.75;10433884;27;96449;-84
2023/04/07 17:57:05;;;;;;;38.87;24.47;;;6.40;99.90;;;4.69;86.46;100184.41;10452118;27;96543;-86
2023/04/07 18:02:08;;;;;;;42.43;25.73;;;6.40;99.90;;;4.70;86.81;100180.81;10440763;27;98307;-83
2023/04/07 18:07:12;;;;;;;47.27;26.87;;;6.40;99.90;;;4.73;87.17;100201.59;10442519;27;98792;-82
2023/04/07 18:12:15;;;;;;;48.47;28.67;;;6.40;99.90;;;4.70;87.39;100188.69;10438892;27;96620;-83
2023/04/07 18:17:18;;;;;;;36.30;22.43;;;6.40;99.90;;;4.62;87.82;100204.28;10430262;27;98901;-83
2023/04/07 18:22:21;;;;;;;36.43;20.90;;;6.40;99.90;;;4.53;88.31;100205.91;10450480;27;98162;-82
2023/04/07 18:27:27;;;;;;;44.63;25.63;;;6.30;99.90;;;4.49;88.70;100217.66;10451879;27;97564;-82
2023/04/07 18:32:30;;;;;;;36.57;20.73;;;6.20;99.90;;;4.47;89.31;100217.78;10481105;27;96731;-82
2023/04/07 18:37:33;;;;;;;34.63;19.93;;;6.10;99.90;;;4.47;89.59;100232.75;10525215;27;96592;-82
2023/04/07 18:42:36;;;;;;;38.77;22.80;;;6.20;99.90;;;4.46;89.89;100231.91;10501126;27;97327;-82
2023/04/07 18:47:39;;;;;;;30.50;18.70;;;6.20;99.90;;;4.43;89.96;100231.31;10473312;27;97775;-81
2023/04/07 18:52:42;;;;;;;34.93;20.63;;;6.10;99.90;;;4.45;90.04;100224.97;10476665;27;98318;-82
2023/04/07 18:57:45;;;;;;;36.03;21.10;;;6.10;99.90;;;4.45;90.42;100238.13;10503594;27;96621;-83
2023/04/07 19:02:48;;;;;;;40.37;23.77;;;6.20;99.90;;;4.46;90.55;100233.69;10481400;27;96624;-82
2023/04/07 19:07:51;;;;;;;36.57;21.03;;;6.10;99.90;;;4.44;90.63;100236.47;10493088;27;98061;-82
2023/04/07 19:12:54;;;;;;;32.73;20.53;;;6.10;99.90;;;4.40;90.94;100242.94;10466287;27;97259;-84
2023/04/07 19:17:58;;;;;;;38.13;24.13;;;6.10;99.90;;;4.35;90.82;100242.47;10512641;27;96624;-85
2023/04/07 19:23:04;;;;;;;40.07;22.63;;;6.00;99.90;;;4.36;91.08;100252.03;10503444;27;97459;-86
2023/04/07 19:28:10;;;;;;;39.60;22.97;;;6.00;99.90;;;4.27;91.12;100252.81;10517203;27;97067;-86
2023/04/07 19:33:13;;;;;;;39.27;22.53;;;5.90;99.90;;;4.19;91.61;100244.69;10487044;27;96557;-87
2023/04/07 19:38:17;;;;;;;37.40;20.60;;;5.90;99.90;;;4.13;91.65;100253.91;10483639;27;96715;-87
2023/04/07 19:43:20;;;;;;;33.33;20.07;;;5.80;99.90;;;4.08;92.00;100263.16;10480931;27;96937;-86
2023/04/07 19:48:24;;;;;;;37.00;21.43;;;5.80;99.90;;;4.03;92.34;100258.28;10500440;27;96649;-87
2023/04/07 19:53:28;;;;;;;36.57;22.37;;;5.70;99.90;;;4.00;92.31;100274.28;10490655;27;97317;-87
2023/04/07 19:58:33;;;;;;;38.70;23.60;;;5.70;99.90;;;3.93;93.00;100263.44;10506927;27;96700;-86
2023/04/07 20:03:38;;;;;;;32.07;19.80;;;5.60;99.90;;;3.97;93.12;100270.13;10508752;27;97195;-87
2023/04/07 20:08:43;;;;;;;41.17;23.70;;;5.60;99.90;;;3.96;93.33;100275.53;10487786;27;96912;-86
2023/04/07 20:13:47;;;;;;;41.43;24.00;;;5.70;99.90;;;3.95;93.81;100264.13;10475159;27;96526;-86
2023/04/07 20:18:51;;;;;;;32.27;18.83;;;5.70;99.90;;;3.94;93.63;100266.91;10473718;27;96893;-88
2023/04/07 20:23:54;;;;;;;38.27;21.80;;;5.60;99.90;;;3.91;93.80;100261.91;10491961;27;98228;-86
2023/04/07 20:28:57;;;;;;;38.00;22.90;;;5.60;99.90;;;3.81;94.07;100261.78;10489979;27;96789;-88
2023/04/07 20:34:00;;;;;;;39.27;22.03;;;5.50;99.90;;;3.80;94.46;100273.28;10444473;27;96909;-87
2023/04/07 20:39:03;;;;;;;35.23;21.17;;;5.50;99.90;;;3.72;94.89;100279.16;10426895;27;97075;-88
2023/04/07 20:44:07;;;;;;;36.50;21.80;;;5.40;99.90;;;3.73;95.18;100277.34;10461462;27;97461;-87
2023/04/07 20:49:11;;;;;;;43.83;24.87;;;5.40;99.90;;;3.69;95.63;100265.41;10463862;27;98408;-86
2023/04/07 20:54:15;;;;;;;38.10;21.43;;;5.40;99.90;;;3.70;95.69;100281.03;10477532;27;97662;-85
2023/04/07 20:59:18;;;;;;;45.53;24.03;;;5.40;99.90;;;3.68;96.18;100287.38;10434031;27;97476;-85